createdAt,value
2019-04-30T00:02:35.846Z,5.77
2019-04-30T00:07:50.876Z,7.10
2019-04-30T00:13:10.460Z,6.50
2019-04-30T00:18:25.629Z,5.33
2019-04-30T00:23:41.488Z,6.47
2019-04-30T00:28:57.338Z,6.27
2019-04-30T00:34:15.164Z,6.37
2019-04-30T00:39:31.466Z,7.27
2019-04-30T00:44:47.353Z,6.13
2019-04-30T00:50:04.956Z,6.33
2019-04-30T00:55:21.207Z,7.50
2019-04-30T01:00:45.495Z,7.50
2019-04-30T01:06:01.644Z,6.87
2019-04-30T01:11:17.867Z,7.57
2019-04-30T01:16:33.475Z,6.03
2019-04-30T01:21:50.792Z,7.33
2019-04-30T01:27:10.309Z,7.63
2019-04-30T01:32:24.105Z,7.83
2019-04-30T01:37:41.161Z,7.67
2019-04-30T01:42:57.041Z,6.97
2019-04-30T01:48:13.182Z,8.10
2019-04-30T01:53:29.085Z,7.77
2019-04-30T01:58:57.132Z,7.40
2019-04-30T02:04:13.234Z,7.73
2019-04-30T02:09:29.088Z,7.40
2019-04-30T02:14:46.092Z,7.27
2019-04-30T02:20:02.908Z,7.13
2019-04-30T02:25:19.948Z,7.17
2019-04-30T02:30:40.217Z,7.63
2019-04-30T02:36:19.983Z,7.23
2019-04-30T02:41:40.882Z,6.50
2019-04-30T02:47:00.280Z,7.93
2019-04-30T02:52:19.569Z,7.33
2019-04-30T02:57:39.532Z,6.27
2019-04-30T03:02:55.095Z,7.27
2019-04-30T03:08:29.917Z,7.03
2019-04-30T03:13:46.364Z,6.77
2019-04-30T03:19:32.337Z,6.23
2019-04-30T03:24:59.792Z,6.80
2019-04-30T03:30:21.313Z,7.00
2019-04-30T03:35:34.820Z,6.47
2019-04-30T03:40:52.704Z,6.20
2019-04-30T03:46:10.161Z,7.00
2019-04-30T03:51:30.431Z,5.83
2019-04-30T03:56:49.871Z,6.40
2019-04-30T04:02:30.185Z,5.33
2019-04-30T04:07:54.335Z,6.17
2019-04-30T04:13:12.139Z,5.67
2019-04-30T04:18:30.214Z,6.67
2019-04-30T04:23:54.875Z,5.47
2019-04-30T04:29:22.502Z,4.97
2019-04-30T04:34:40.059Z,5.83
2019-04-30T04:39:56.219Z,4.87
2019-04-30T04:45:12.555Z,4.87
2019-04-30T04:50:30.239Z,4.70
2019-04-30T04:55:46.734Z,4.60
2019-04-30T05:01:02.687Z,5.13
2019-04-30T05:06:21.820Z,3.93
2019-04-30T05:11:39.445Z,4.40
2019-04-30T05:16:55.067Z,4.33
2019-04-30T05:22:11.151Z,4.87
2019-04-30T05:27:27.204Z,6.23
2019-04-30T05:32:43.013Z,5.57
2019-04-30T05:37:59.294Z,5.70
2019-04-30T05:43:15.110Z,6.17
2019-04-30T05:48:31.057Z,7.03
2019-04-30T05:53:46.985Z,7.00
2019-04-30T05:59:03.411Z,6.77
2019-04-30T06:04:19.433Z,7.57
2019-04-30T06:09:50.234Z,8.00
2019-04-30T06:15:30.915Z,8.17
2019-04-30T06:20:48.674Z,8.10
2019-04-30T06:26:09.624Z,8.47
2019-04-30T06:31:32.286Z,9.17
2019-04-30T06:36:51.054Z,10.27
2019-04-30T06:42:06.447Z,9.57
2019-04-30T06:47:20.056Z,10.30
2019-04-30T06:52:35.466Z,8.77
2019-04-30T06:57:51.561Z,9.23
2019-04-30T07:03:09.584Z,9.43
2019-04-30T07:08:42.787Z,10.33
2019-04-30T07:14:00.034Z,9.43
2019-04-30T07:19:29.124Z,10.60
2019-04-30T07:24:33.358Z,9.23
2019-04-30T07:29:49.588Z,9.93
2019-04-30T07:35:05.434Z,9.93
2019-04-30T07:40:21.505Z,10.27
2019-04-30T07:45:39.239Z,9.00
2019-04-30T07:50:55.472Z,11.20
2019-04-30T07:56:24.137Z,9.87
2019-04-30T08:01:29.478Z,10.40
2019-04-30T08:06:45.342Z,10.50
2019-04-30T08:12:01.231Z,10.13
2019-04-30T08:17:18.839Z,12.03
2019-04-30T08:22:34.614Z,10.63
2019-04-30T08:27:50.690Z,10.97
2019-04-30T08:33:06.471Z,10.73
2019-04-30T08:38:29.927Z,11.07
2019-04-30T08:43:45.090Z,9.73
2019-04-30T08:49:01.264Z,10.60
2019-04-30T08:54:19.462Z,10.77
2019-04-30T08:59:34.675Z,10.00
2019-04-30T09:04:54.654Z,11.00
2019-04-30T09:10:10.612Z,10.90
2019-04-30T09:15:26.770Z,12.03
2019-04-30T09:20:42.439Z,11.73
2019-04-30T09:25:58.652Z,11.77
2019-04-30T09:31:14.526Z,12.23
2019-04-30T09:36:30.211Z,12.63
2019-04-30T09:41:46.038Z,12.07
2019-04-30T09:47:01.636Z,13.83
2019-04-30T09:52:19.735Z,12.03
2019-04-30T09:57:38.890Z,11.40
2019-04-30T10:02:53.985Z,11.00
2019-04-30T10:08:09.884Z,11.37
2019-04-30T10:13:25.637Z,11.90
2019-04-30T10:18:43.066Z,12.00
2019-04-30T10:24:11.854Z,11.90
2019-04-30T10:29:18.538Z,13.07
2019-04-30T10:34:34.381Z,12.50
2019-04-30T10:39:50.287Z,12.57
2019-04-30T10:45:11.150Z,10.97
2019-04-30T10:50:28.449Z,12.87
2019-04-30T10:55:44.481Z,12.10
2019-04-30T11:01:01.994Z,15.17
2019-04-30T11:06:19.200Z,13.07
2019-04-30T11:11:34.969Z,12.97
2019-04-30T11:16:51.688Z,14.47
2019-04-30T11:22:08.377Z,14.37
2019-04-30T11:27:24.914Z,12.07
2019-04-30T11:32:40.875Z,12.67
2019-04-30T11:37:56.946Z,18.07
2019-04-30T11:43:12.987Z,17.30
2019-04-30T11:48:28.992Z,18.43
2019-04-30T11:53:44.811Z,16.03
2019-04-30T11:59:00.475Z,15.63
2019-04-30T12:04:16.328Z,15.07
2019-04-30T12:09:54.279Z,16.13
2019-04-30T12:15:10.329Z,15.10
2019-04-30T12:20:26.126Z,15.90
2019-04-30T12:25:42.064Z,13.27
2019-04-30T12:30:58.879Z,11.70
2019-04-30T12:36:14.627Z,11.83
2019-04-30T12:41:30.346Z,12.00
2019-04-30T12:46:48.527Z,11.00
2019-04-30T12:52:11.026Z,11.00
2019-04-30T12:57:36.446Z,12.77
2019-04-30T13:02:52.528Z,11.40
2019-04-30T13:08:09.704Z,11.60
2019-04-30T13:13:25.814Z,11.23
2019-04-30T13:18:41.718Z,10.83
2019-04-30T13:23:57.547Z,9.73
2019-04-30T13:29:18.492Z,9.97
2019-04-30T13:35:00.986Z,7.00
2019-04-30T13:40:38.943Z,8.90
2019-04-30T13:45:53.984Z,10.13
2019-04-30T13:51:09.858Z,9.93
2019-04-30T13:56:28.543Z,9.67
2019-04-30T14:01:44.180Z,9.23
2019-04-30T14:07:17.662Z,8.67
2019-04-30T14:12:35.963Z,8.57
2019-04-30T14:17:51.598Z,8.20
2019-04-30T14:23:08.531Z,7.83
2019-04-30T14:28:25.653Z,8.10
2019-04-30T14:33:41.306Z,8.53
2019-04-30T14:39:13.109Z,7.50
2019-04-30T14:44:19.276Z,6.67
2019-04-30T14:50:02.030Z,7.50
2019-04-30T14:55:22.068Z,7.33
2019-04-30T15:00:56.698Z,7.83
2019-04-30T15:06:13.923Z,7.57
2019-04-30T15:11:30.037Z,7.20
2019-04-30T15:16:47.527Z,6.90
2019-04-30T15:22:04.030Z,6.93
2019-04-30T15:27:20.502Z,6.37
2019-04-30T15:32:39.572Z,6.70
2019-04-30T15:37:57.234Z,8.17
2019-04-30T15:43:14.194Z,7.10
2019-04-30T15:48:30.076Z,6.97
2019-04-30T15:53:45.556Z,6.40
2019-04-30T15:59:19.147Z,6.57
2019-04-30T16:04:51.520Z,6.77
2019-04-30T16:10:19.971Z,7.57
2019-04-30T16:15:36.168Z,6.53
2019-04-30T16:20:53.531Z,6.60
2019-04-30T16:26:11.102Z,6.87
2019-04-30T16:31:29.021Z,6.83
2019-04-30T16:36:46.192Z,6.47
2019-04-30T16:42:02.081Z,6.00
2019-04-30T16:47:19.896Z,6.07
2019-04-30T16:52:39.506Z,6.80
2019-04-30T16:57:55.604Z,6.40
2019-04-30T17:03:19.185Z,5.80
2019-04-30T17:08:46.158Z,5.93
2019-04-30T17:14:05.155Z,6.37
2019-04-30T17:19:33.462Z,6.77
2019-04-30T17:24:50.998Z,5.93
2019-04-30T17:30:09.323Z,6.20
2019-04-30T17:35:25.128Z,6.30
2019-04-30T17:40:40.969Z,6.03
2019-04-30T17:45:58.519Z,6.67
2019-04-30T17:51:14.454Z,6.40
2019-04-30T18:01:53.350Z,5.13
2019-04-30T18:07:10.017Z,5.30
2019-04-30T18:12:26.330Z,5.03
2019-04-30T18:17:44.076Z,4.33
2019-04-30T18:23:37.181Z,4.57
2019-04-30T18:28:52.971Z,4.97
2019-04-30T18:34:09.444Z,4.97
2019-04-30T18:39:29.011Z,4.63
2019-04-30T18:44:44.917Z,4.90
2019-04-30T18:50:01.141Z,4.53
2019-04-30T18:55:16.802Z,4.33
2019-04-30T19:00:40.442Z,4.70
2019-04-30T19:06:00.743Z,4.27
2019-04-30T19:11:35.362Z,4.80
2019-04-30T19:17:09.617Z,4.80
2019-04-30T19:22:25.733Z,4.20
2019-04-30T19:27:41.735Z,5.07
2019-04-30T19:33:17.169Z,5.10
2019-04-30T19:38:33.637Z,4.60
2019-04-30T19:43:50.174Z,4.93
2019-04-30T19:49:05.957Z,4.90
2019-04-30T19:54:22.141Z,4.17
2019-04-30T19:59:38.254Z,4.67
2019-04-30T20:04:59.052Z,4.47
2019-04-30T20:10:15.149Z,5.10
2019-04-30T20:15:30.868Z,4.63
2019-04-30T20:20:51.632Z,4.30
2019-04-30T20:26:06.593Z,5.20
2019-04-30T20:31:22.873Z,4.80
2019-04-30T20:36:38.996Z,4.13
2019-04-30T20:41:58.325Z,4.63
2019-04-30T20:47:25.292Z,5.70
2019-04-30T20:52:40.980Z,6.67
2019-04-30T20:57:56.531Z,6.97
2019-04-30T21:03:12.275Z,9.97
2019-04-30T21:08:28.193Z,9.23
2019-04-30T21:13:44.022Z,9.17
2019-04-30T21:18:59.920Z,8.67
2019-04-30T21:24:16.044Z,7.97
2019-04-30T21:29:31.625Z,8.37
2019-04-30T21:35:03.936Z,8.70
2019-04-30T21:40:20.213Z,8.03
2019-04-30T21:45:35.971Z,8.63
2019-04-30T21:50:51.993Z,8.57
2019-04-30T21:56:09.024Z,7.73
2019-04-30T22:01:26.043Z,7.37
2019-04-30T22:06:46.671Z,7.97
2019-04-30T22:12:04.236Z,7.60
2019-04-30T22:17:20.527Z,8.10
2019-04-30T22:22:39.093Z,7.80
2019-04-30T22:28:01.927Z,6.97
2019-04-30T22:33:19.384Z,8.03
2019-04-30T22:38:41.428Z,7.53
2019-04-30T22:44:01.394Z,6.87
2019-04-30T22:49:17.011Z,6.47
2019-04-30T22:54:33.162Z,6.57
2019-04-30T22:59:58.739Z,7.00
2019-04-30T23:05:16.742Z,7.93
2019-04-30T23:10:34.487Z,7.60
2019-04-30T23:15:58.541Z,6.77
2019-04-30T23:21:17.892Z,6.97
2019-04-30T23:26:34.035Z,7.00
2019-04-30T23:31:50.313Z,6.50
2019-04-30T23:37:06.041Z,7.10
2019-04-30T23:42:21.680Z,6.87
2019-04-30T23:47:45.410Z,6.50
2019-04-30T23:53:01.203Z,6.63
2019-04-30T23:58:17.291Z,7.07
